Time,TemperatureF,DewpointF,PressureIn,WindDirection,WindDirectionDegrees,WindSpeedMPH,WindSpeedGustMPH,Humidity,HourlyPrecipIn,Conditions,Clouds,dailyrainin,SolarRadiationWatts/m^2,SoftwareType,DateUTC
2013-11-29 00:01:00,32.0,30.0,-100.00,ESE,105,3.0,6.0,91,0.00,,,0.00,1.000000,,2013-11-29 08:01:00,
2013-11-29 06:42:00,30.0,28.0,-100.00,East,99,0.0,6.0,94,0.00,,,0.00,1.000000,,2013-11-29 14:42:00,
2013-11-29 06:52:00,30.0,28.0,-100.00,East,99,0.0,6.0,94,0.00,,,0.00,1.000000,,2013-11-29 14:52:00,
2013-11-29 07:02:00,30.0,28.0,-100.00,East,99,0.0,6.0,94,0.00,,,0.00,1.000000,,2013-11-29 15:02:00,
2013-11-29 07:43:00,29.0,28.0,-100.00,East,92,1.0,5.0,95,0.00,,,0.00,1.000000,,2013-11-29 15:43:00,
2013-11-29 07:53:00,29.0,28.0,-100.00,East,92,1.0,5.0,95,0.00,,,0.00,1.000000,,2013-11-29 15:53:00,
2013-11-29 08:03:00,29.0,28.0,-100.00,East,92,1.0,5.0,95,0.00,,,0.00,1.000000,,2013-11-29 16:03:00,
2013-11-29 08:43:00,31.0,30.0,-100.00,ENE,70,2.0,6.0,95,0.00,,,0.00,13.000000,,2013-11-29 16:43:00,
2013-11-29 08:53:00,31.0,30.0,-100.00,ENE,70,2.0,6.0,95,0.00,,,0.00,13.000000,,2013-11-29 16:53:00,
2013-11-29 09:02:00,31.0,30.0,-100.00,ENE,70,2.0,6.0,95,0.00,,,0.00,13.000000,,2013-11-29 17:02:00,
2013-11-29 09:43:00,33.0,31.0,-100.00,ESE,121,0.0,5.0,94,0.00,,,0.00,52.000000,,2013-11-29 17:43:00,
2013-11-29 09:52:00,33.0,31.0,-100.00,ESE,121,0.0,5.0,94,0.00,,,0.00,52.000000,,2013-11-29 17:52:00,
2013-11-29 10:02:00,33.0,31.0,-100.00,ESE,121,0.0,5.0,94,0.00,,,0.00,52.000000,,2013-11-29 18:02:00,
2013-11-29 10:42:00,36.0,32.0,-100.00,East,99,1.0,3.0,85,0.00,,,0.00,83.000000,,2013-11-29 18:42:00,
2013-11-29 10:52:00,36.0,32.0,-100.00,East,99,1.0,3.0,85,0.00,,,0.00,83.000000,,2013-11-29 18:52:00,
2013-11-29 11:01:00,36.0,32.0,-100.00,East,99,1.0,3.0,85,0.00,,,0.00,83.000000,,2013-11-29 19:01:00,
2013-11-29 11:42:00,38.0,32.0,-100.00,West,273,2.0,4.0,80,0.00,,,0.00,134.000000,,2013-11-29 19:42:00,
2013-11-29 11:52:00,38.0,32.0,-100.00,West,273,2.0,4.0,80,0.00,,,0.00,134.000000,,2013-11-29 19:52:00,
2013-11-29 12:02:00,38.0,32.0,-100.00,West,273,2.0,4.0,80,0.00,,,0.00,134.000000,,2013-11-29 20:02:00,
2013-11-29 12:42:00,39.0,32.0,-100.00,SSE,159,1.0,4.0,77,0.00,,,0.00,107.000000,,2013-11-29 20:42:00,
2013-11-29 12:52:00,39.0,32.0,-100.00,SSE,159,1.0,4.0,77,0.00,,,0.00,107.000000,,2013-11-29 20:52:00,
2013-11-29 13:02:00,39.0,32.0,-100.00,SSE,159,1.0,4.0,77,0.00,,,0.00,107.000000,,2013-11-29 21:02:00,
2013-11-29 13:43:00,40.0,33.0,-100.00,NE,54,2.0,5.0,75,0.00,,,0.00,106.000000,,2013-11-29 21:43:00,
2013-11-29 13:53:00,40.0,33.0,-100.00,NE,54,2.0,5.0,75,0.00,,,0.00,106.000000,,2013-11-29 21:53:00,
2013-11-29 14:03:00,40.0,33.0,-100.00,NE,54,2.0,5.0,75,0.00,,,0.00,106.000000,,2013-11-29 22:03:00,